sensor_id;sensor_type;location;lat;lon;timestamp;P1;durP1;ratioP1;P2;durP2;ratioP2
27265;SDS011;14766;51.380;13.762;2024-03-07T00:00:43;35.55;;;19.20;;
27265;SDS011;14766;51.380;13.762;2024-03-07T00:03:10;32.22;;;19.52;;
27265;SDS011;14766;51.380;13.762;2024-03-07T00:05:37;33.15;;;17.60;;
27265;SDS011;14766;51.380;13.762;2024-03-07T00:08:05;34.40;;;17.65;;
27265;SDS011;14766;51.380;13.762;2024-03-07T00:10:33;30.83;;;17.55;;
27265;SDS011;14766;51.380;13.762;2024-03-07T00:13:03;29.10;;;17.75;;
27265;SDS011;14766;51.380;13.762;2024-03-07T00:15:30;34.47;;;19.25;;
27265;SDS011;14766;51.380;13.762;2024-03-07T00:17:57;31.65;;;18.83;;
27265;SDS011;14766;51.380;13.762;2024-03-07T00:20:24;33.70;;;18.85;;
27265;SDS011;14766;51.380;13.762;2024-03-07T00:22:51;28.42;;;17.05;;
27265;SDS011;14766;51.380;13.762;2024-03-07T00:25:18;29.70;;;17.70;;
27265;SDS011;14766;51.380;13.762;2024-03-07T00:27:47;31.20;;;18.35;;
27265;SDS011;14766;51.380;13.762;2024-03-07T00:30:14;30.90;;;17.63;;
27265;SDS011;14766;51.380;13.762;2024-03-07T00:32:46;31.35;;;18.15;;
27265;SDS011;14766;51.380;13.762;2024-03-07T00:35:17;29.77;;;17.65;;
27265;SDS011;14766;51.380;13.762;2024-03-07T00:37:47;32.08;;;18.52;;
27265;SDS011;14766;51.380;13.762;2024-03-07T00:40:14;29.90;;;16.73;;
27265;SDS011;14766;51.380;13.762;2024-03-07T00:42:41;28.83;;;16.27;;
27265;SDS011;14766;51.380;13.762;2024-03-07T00:45:09;29.67;;;17.13;;
27265;SDS011;14766;51.380;13.762;2024-03-07T00:47:36;29.83;;;17.17;;
27265;SDS011;14766;51.380;13.762;2024-03-07T00:50:04;33.83;;;18.38;;
27265;SDS011;14766;51.380;13.762;2024-03-07T00:52:35;33.90;;;19.30;;
27265;SDS011;14766;51.380;13.762;2024-03-07T00:55:03;28.45;;;16.55;;
27265;SDS011;14766;51.380;13.762;2024-03-07T00:57:30;29.05;;;17.40;;
27265;SDS011;14766;51.380;13.762;2024-03-07T00:59:57;30.17;;;17.83;;
27265;SDS011;14766;51.380;13.762;2024-03-07T01:02:24;29.83;;;16.92;;
27265;SDS011;14766;51.380;13.762;2024-03-07T01:04:52;30.60;;;17.88;;
27265;SDS011;14766;51.380;13.762;2024-03-07T01:07:21;29.77;;;17.42;;
27265;SDS011;14766;51.380;13.762;2024-03-07T01:09:53;27.95;;;16.98;;
27265;SDS011;14766;51.380;13.762;2024-03-07T01:12:21;29.02;;;17.33;;
27265;SDS011;14766;51.380;13.762;2024-03-07T01:14:53;28.55;;;17.05;;
27265;SDS011;14766;51.380;13.762;2024-03-07T01:17:20;29.73;;;17.13;;
27265;SDS011;14766;51.380;13.762;2024-03-07T01:19:47;30.00;;;18.38;;
27265;SDS011;14766;51.380;13.762;2024-03-07T01:22:14;31.50;;;17.95;;
27265;SDS011;14766;51.380;13.762;2024-03-07T01:24:41;30.20;;;17.63;;
27265;SDS011;14766;51.380;13.762;2024-03-07T01:27:11;32.78;;;18.63;;
27265;SDS011;14766;51.380;13.762;2024-03-07T01:29:42;29.33;;;17.30;;
27265;SDS011;14766;51.380;13.762;2024-03-07T01:32:11;31.38;;;17.05;;
27265;SDS011;14766;51.380;13.762;2024-03-07T01:34:39;28.33;;;16.67;;
27265;SDS011;14766;51.380;13.762;2024-03-07T01:37:06;29.80;;;16.95;;
27265;SDS011;14766;51.380;13.762;2024-03-07T01:39:35;32.15;;;17.88;;
27265;SDS011;14766;51.380;13.762;2024-03-07T01:42:03;32.15;;;18.35;;
27265;SDS011;14766;51.380;13.762;2024-03-07T01:44:30;32.10;;;17.88;;
27265;SDS011;14766;51.380;13.762;2024-03-07T01:46:59;31.80;;;18.30;;
27265;SDS011;14766;51.380;13.762;2024-03-07T01:49:30;28.45;;;17.45;;
27265;SDS011;14766;51.380;13.762;2024-03-07T01:51:58;32.50;;;18.48;;
27265;SDS011;14766;51.380;13.762;2024-03-07T01:54:25;33.83;;;19.10;;
27265;SDS011;14766;51.380;13.762;2024-03-07T01:56:54;29.67;;;17.73;;
27265;SDS011;14766;51.380;13.762;2024-03-07T01:59:22;29.60;;;18.13;;
27265;SDS011;14766;51.380;13.762;2024-03-07T02:01:51;36.38;;;20.88;;
27265;SDS011;14766;51.380;13.762;2024-03-07T02:04:19;30.80;;;18.88;;
27265;SDS011;14766;51.380;13.762;2024-03-07T02:06:47;31.90;;;17.55;;
27265;SDS011;14766;51.380;13.762;2024-03-07T02:09:15;30.40;;;18.33;;
27265;SDS011;14766;51.380;13.762;2024-03-07T02:11:43;36.67;;;19.58;;
27265;SDS011;14766;51.380;13.762;2024-03-07T02:14:13;33.67;;;19.27;;
27265;SDS011;14766;51.380;13.762;2024-03-07T02:16:42;33.92;;;19.88;;
27265;SDS011;14766;51.380;13.762;2024-03-07T02:19:11;31.77;;;19.42;;
27265;SDS011;14766;51.380;13.762;2024-03-07T02:21:41;33.60;;;19.63;;
27265;SDS011;14766;51.380;13.762;2024-03-07T02:24:08;33.63;;;19.27;;
27265;SDS011;14766;51.380;13.762;2024-03-07T02:26:36;30.42;;;18.15;;
27265;SDS011;14766;51.380;13.762;2024-03-07T02:29:03;28.80;;;18.35;;
27265;SDS011;14766;51.380;13.762;2024-03-07T02:31:30;29.20;;;18.75;;
27265;SDS011;14766;51.380;13.762;2024-03-07T02:34:04;33.95;;;19.23;;
27265;SDS011;14766;51.380;13.762;2024-03-07T02:36:34;33.47;;;18.63;;
27265;SDS011;14766;51.380;13.762;2024-03-07T02:39:01;34.42;;;20.20;;
27265;SDS011;14766;51.380;13.762;2024-03-07T02:41:28;33.88;;;19.10;;
27265;SDS011;14766;51.380;13.762;2024-03-07T02:43:55;32.00;;;19.83;;
27265;SDS011;14766;51.380;13.762;2024-03-07T02:46:22;33.55;;;20.13;;
27265;SDS011;14766;51.380;13.762;2024-03-07T02:48:50;29.38;;;18.98;;
27265;SDS011;14766;51.380;13.762;2024-03-07T02:51:17;31.15;;;18.83;;
27265;SDS011;14766;51.380;13.762;2024-03-07T02:53:45;31.98;;;18.70;;
27265;SDS011;14766;51.380;13.762;2024-03-07T02:56:12;31.65;;;19.17;;
27265;SDS011;14766;51.380;13.762;2024-03-07T02:58:39;33.20;;;19.58;;
27265;SDS011;14766;51.380;13.762;2024-03-07T03:01:07;30.23;;;18.02;;
27265;SDS011;14766;51.380;13.762;2024-03-07T03:03:38;30.23;;;18.55;;
27265;SDS011;14766;51.380;13.762;2024-03-07T03:06:09;33.42;;;20.08;;
27265;SDS011;14766;51.380;13.762;2024-03-07T03:08:40;35.65;;;20.13;;
27265;SDS011;14766;51.380;13.762;2024-03-07T03:11:08;33.10;;;21.17;;
27265;SDS011;14766;51.380;13.762;2024-03-07T03:13:39;38.03;;;21.20;;
27265;SDS011;14766;51.380;13.762;2024-03-07T03:16:07;35.30;;;21.08;;
27265;SDS011;14766;51.380;13.762;2024-03-07T03:18:36;32.47;;;19.90;;
27265;SDS011;14766;51.380;13.762;2024-03-07T03:21:03;32.97;;;20.02;;
27265;SDS011;14766;51.380;13.762;2024-03-07T03:23:32;29.48;;;19.23;;
27265;SDS011;14766;51.380;13.762;2024-03-07T03:25:59;31.50;;;19.83;;
27265;SDS011;14766;51.380;13.762;2024-03-07T03:28:26;32.15;;;19.83;;
27265;SDS011;14766;51.380;13.762;2024-03-07T03:30:53;33.33;;;19.58;;
27265;SDS011;14766;51.380;13.762;2024-03-07T03:33:20;33.28;;;19.95;;
27265;SDS011;14766;51.380;13.762;2024-03-07T03:35:48;32.50;;;20.25;;
27265;SDS011;14766;51.380;13.762;2024-03-07T03:38:15;32.67;;;20.42;;
27265;SDS011;14766;51.380;13.762;2024-03-07T03:40:45;32.67;;;21.58;;
27265;SDS011;14766;51.380;13.762;2024-03-07T03:43:12;33.15;;;19.50;;
27265;SDS011;14766;51.380;13.762;2024-03-07T03:45:39;33.28;;;20.50;;
27265;SDS011;14766;51.380;13.762;2024-03-07T03:48:06;31.67;;;19.45;;
27265;SDS011;14766;51.380;13.762;2024-03-07T03:50:34;35.50;;;19.52;;
27265;SDS011;14766;51.380;13.762;2024-03-07T03:53:01;31.50;;;19.73;;
27265;SDS011;14766;51.380;13.762;2024-03-07T03:55:28;28.95;;;18.27;;
27265;SDS011;14766;51.380;13.762;2024-03-07T03:57:56;28.40;;;19.50;;
27265;SDS011;14766;51.380;13.762;2024-03-07T04:00:24;32.00;;;20.08;;
27265;SDS011;14766;51.380;13.762;2024-03-07T04:02:51;32.60;;;19.73;;
27265;SDS011;14766;51.380;13.762;2024-03-07T04:05:20;33.00;;;21.13;;
27265;SDS011;14766;51.380;13.762;2024-03-07T04:07:48;33.45;;;20.25;;
27265;SDS011;14766;51.380;13.762;2024-03-07T04:10:16;34.55;;;20.50;;
27265;SDS011;14766;51.380;13.762;2024-03-07T04:12:44;31.73;;;19.88;;
27265;SDS011;14766;51.380;13.762;2024-03-07T04:15:13;36.03;;;21.70;;
27265;SDS011;14766;51.380;13.762;2024-03-07T04:17:45;29.88;;;19.38;;
27265;SDS011;14766;51.380;13.762;2024-03-07T04:20:14;33.97;;;20.48;;
27265;SDS011;14766;51.380;13.762;2024-03-07T04:22:45;31.58;;;19.92;;
27265;SDS011;14766;51.380;13.762;2024-03-07T04:25:12;31.70;;;19.10;;
27265;SDS011;14766;51.380;13.762;2024-03-07T04:27:40;36.47;;;19.73;;
27265;SDS011;14766;51.380;13.762;2024-03-07T04:30:07;34.88;;;19.20;;
27265;SDS011;14766;51.380;13.762;2024-03-07T04:32:38;35.53;;;20.77;;
27265;SDS011;14766;51.380;13.762;2024-03-07T04:35:06;32.33;;;19.52;;
27265;SDS011;14766;51.380;13.762;2024-03-07T04:37:39;31.27;;;19.25;;
27265;SDS011;14766;51.380;13.762;2024-03-07T04:40:08;30.17;;;19.58;;
27265;SDS011;14766;51.380;13.762;2024-03-07T04:42:44;31.52;;;19.67;;
27265;SDS011;14766;51.380;13.762;2024-03-07T04:45:12;31.05;;;18.52;;
27265;SDS011;14766;51.380;13.762;2024-03-07T04:47:40;29.27;;;18.17;;
27265;SDS011;14766;51.380;13.762;2024-03-07T04:50:15;33.65;;;18.48;;
27265;SDS011;14766;51.380;13.762;2024-03-07T04:52:46;29.92;;;18.48;;
27265;SDS011;14766;51.380;13.762;2024-03-07T04:55:15;34.67;;;18.75;;
27265;SDS011;14766;51.380;13.762;2024-03-07T04:57:45;30.48;;;18.55;;
27265;SDS011;14766;51.380;13.762;2024-03-07T05:00:13;31.02;;;18.55;;
27265;SDS011;14766;51.380;13.762;2024-03-07T05:02:44;32.38;;;19.02;;
27265;SDS011;14766;51.380;13.762;2024-03-07T05:05:13;31.08;;;18.33;;
27265;SDS011;14766;51.380;13.762;2024-03-07T05:07:41;32.17;;;18.92;;
27265;SDS011;14766;51.380;13.762;2024-03-07T05:10:08;32.67;;;18.83;;
27265;SDS011;14766;51.380;13.762;2024-03-07T05:12:36;32.13;;;18.73;;
27265;SDS011;14766;51.380;13.762;2024-03-07T05:15:07;32.58;;;18.90;;
27265;SDS011;14766;51.380;13.762;2024-03-07T05:17:37;29.30;;;18.40;;
27265;SDS011;14766;51.380;13.762;2024-03-07T05:20:06;33.03;;;17.98;;
27265;SDS011;14766;51.380;13.762;2024-03-07T05:22:38;30.17;;;18.55;;
27265;SDS011;14766;51.380;13.762;2024-03-07T05:25:18;28.83;;;17.38;;
27265;SDS011;14766;51.380;13.762;2024-03-07T05:27:45;27.05;;;17.88;;
27265;SDS011;14766;51.380;13.762;2024-03-07T05:30:13;30.95;;;18.05;;
27265;SDS011;14766;51.380;13.762;2024-03-07T05:32:42;30.77;;;18.20;;
27265;SDS011;14766;51.380;13.762;2024-03-07T05:35:09;28.83;;;17.63;;
27265;SDS011;14766;51.380;13.762;2024-03-07T05:37:38;30.90;;;17.92;;
27265;SDS011;14766;51.380;13.762;2024-03-07T05:40:08;33.78;;;20.30;;
27265;SDS011;14766;51.380;13.762;2024-03-07T05:42:36;33.58;;;21.52;;
27265;SDS011;14766;51.380;13.762;2024-03-07T05:45:03;28.13;;;18.27;;
27265;SDS011;14766;51.380;13.762;2024-03-07T05:47:34;32.67;;;19.15;;
27265;SDS011;14766;51.380;13.762;2024-03-07T05:50:01;26.17;;;16.95;;
27265;SDS011;14766;51.380;13.762;2024-03-07T05:52:30;44.13;;;25.42;;
27265;SDS011;14766;51.380;13.762;2024-03-07T05:54:57;36.75;;;20.35;;
27265;SDS011;14766;51.380;13.762;2024-03-07T05:57:24;27.23;;;16.77;;
27265;SDS011;14766;51.380;13.762;2024-03-07T05:59:51;29.42;;;16.80;;
27265;SDS011;14766;51.380;13.762;2024-03-07T06:02:18;27.63;;;15.93;;
27265;SDS011;14766;51.380;13.762;2024-03-07T06:04:46;26.48;;;15.75;;
27265;SDS011;14766;51.380;13.762;2024-03-07T06:07:14;27.23;;;16.58;;
27265;SDS011;14766;51.380;13.762;2024-03-07T06:09:41;27.95;;;16.23;;
27265;SDS011;14766;51.380;13.762;2024-03-07T06:12:10;27.83;;;15.48;;
27265;SDS011;14766;51.380;13.762;2024-03-07T06:14:48;24.80;;;15.18;;
27265;SDS011;14766;51.380;13.762;2024-03-07T06:17:16;25.25;;;15.75;;
27265;SDS011;14766;51.380;13.762;2024-03-07T06:19:48;31.27;;;16.05;;
27265;SDS011;14766;51.380;13.762;2024-03-07T06:22:15;27.08;;;15.63;;
27265;SDS011;14766;51.380;13.762;2024-03-07T06:24:43;25.65;;;15.30;;
27265;SDS011;14766;51.380;13.762;2024-03-07T06:27:11;26.42;;;15.85;;
27265;SDS011;14766;51.380;13.762;2024-03-07T06:29:53;25.75;;;15.15;;
27265;SDS011;14766;51.380;13.762;2024-03-07T06:32:22;24.70;;;15.35;;
27265;SDS011;14766;51.380;13.762;2024-03-07T06:34:50;25.38;;;14.85;;
27265;SDS011;14766;51.380;13.762;2024-03-07T06:37:17;23.60;;;15.05;;
27265;SDS011;14766;51.380;13.762;2024-03-07T06:39:46;22.63;;;14.60;;
27265;SDS011;14766;51.380;13.762;2024-03-07T06:42:13;22.77;;;14.63;;
27265;SDS011;14766;51.380;13.762;2024-03-07T06:44:42;20.95;;;14.32;;
27265;SDS011;14766;51.380;13.762;2024-03-07T06:47:10;24.33;;;15.27;;
27265;SDS011;14766;51.380;13.762;2024-03-07T06:49:37;23.42;;;14.48;;
27265;SDS011;14766;51.380;13.762;2024-03-07T06:52:05;22.02;;;14.45;;
27265;SDS011;14766;51.380;13.762;2024-03-07T06:54:34;25.73;;;15.68;;
27265;SDS011;14766;51.380;13.762;2024-03-07T06:57:01;20.77;;;13.35;;
27265;SDS011;14766;51.380;13.762;2024-03-07T06:59:29;21.58;;;14.52;;
27265;SDS011;14766;51.380;13.762;2024-03-07T07:01:56;19.05;;;13.45;;
27265;SDS011;14766;51.380;13.762;2024-03-07T07:04:25;19.27;;;14.25;;
27265;SDS011;14766;51.380;13.762;2024-03-07T07:06:59;21.60;;;13.98;;
27265;SDS011;14766;51.380;13.762;2024-03-07T07:09:27;19.55;;;14.32;;
27265;SDS011;14766;51.380;13.762;2024-03-07T07:11:55;18.25;;;13.60;;
27265;SDS011;14766;51.380;13.762;2024-03-07T07:14:22;19.83;;;13.93;;
27265;SDS011;14766;51.380;13.762;2024-03-07T07:16:49;19.45;;;13.52;;
27265;SDS011;14766;51.380;13.762;2024-03-07T07:19:16;20.65;;;13.60;;
27265;SDS011;14766;51.380;13.762;2024-03-07T07:21:43;21.58;;;13.80;;
27265;SDS011;14766;51.380;13.762;2024-03-07T07:24:10;20.25;;;13.90;;
27265;SDS011;14766;51.380;13.762;2024-03-07T07:26:38;19.50;;;14.05;;
27265;SDS011;14766;51.380;13.762;2024-03-07T07:29:05;21.13;;;14.98;;
27265;SDS011;14766;51.380;13.762;2024-03-07T07:31:32;18.23;;;12.38;;
27265;SDS011;14766;51.380;13.762;2024-03-07T07:33:59;19.75;;;13.07;;
27265;SDS011;14766;51.380;13.762;2024-03-07T07:36:26;19.15;;;12.45;;
27265;SDS011;14766;51.380;13.762;2024-03-07T07:38:57;19.60;;;13.25;;
27265;SDS011;14766;51.380;13.762;2024-03-07T07:41:24;18.75;;;12.82;;
27265;SDS011;14766;51.380;13.762;2024-03-07T07:43:52;15.88;;;12.32;;
27265;SDS011;14766;51.380;13.762;2024-03-07T07:46:19;19.25;;;13.45;;
27265;SDS011;14766;51.380;13.762;2024-03-07T07:48:46;19.92;;;12.88;;
27265;SDS011;14766;51.380;13.762;2024-03-07T07:51:13;20.92;;;14.90;;
27265;SDS011;14766;51.380;13.762;2024-03-07T07:53:40;23.00;;;13.90;;
27265;SDS011;14766;51.380;13.762;2024-03-07T07:56:08;19.50;;;13.75;;
27265;SDS011;14766;51.380;13.762;2024-03-07T07:58:35;18.42;;;12.55;;
27265;SDS011;14766;51.380;13.762;2024-03-07T08:01:02;22.20;;;13.73;;
27265;SDS011;14766;51.380;13.762;2024-03-07T08:03:30;19.70;;;13.50;;
27265;SDS011;14766;51.380;13.762;2024-03-07T08:06:01;21.05;;;13.90;;
27265;SDS011;14766;51.380;13.762;2024-03-07T08:08:29;20.15;;;13.68;;
27265;SDS011;14766;51.380;13.762;2024-03-07T08:10:57;18.20;;;13.25;;
27265;SDS011;14766;51.380;13.762;2024-03-07T08:13:27;18.70;;;12.45;;
27265;SDS011;14766;51.380;13.762;2024-03-07T08:15:55;20.20;;;12.88;;
27265;SDS011;14766;51.380;13.762;2024-03-07T08:18:23;18.70;;;12.70;;
27265;SDS011;14766;51.380;13.762;2024-03-07T08:20:52;20.40;;;13.63;;
27265;SDS011;14766;51.380;13.762;2024-03-07T08:23:22;19.85;;;13.50;;
27265;SDS011;14766;51.380;13.762;2024-03-07T08:25:52;19.90;;;13.02;;
27265;SDS011;14766;51.380;13.762;2024-03-07T08:28:19;20.73;;;13.32;;
27265;SDS011;14766;51.380;13.762;2024-03-07T08:30:46;18.63;;;13.32;;
27265;SDS011;14766;51.380;13.762;2024-03-07T08:33:13;18.73;;;13.50;;
27265;SDS011;14766;51.380;13.762;2024-03-07T08:35:41;20.52;;;12.82;;
27265;SDS011;14766;51.380;13.762;2024-03-07T08:38:09;21.95;;;13.35;;
27265;SDS011;14766;51.380;13.762;2024-03-07T08:40:38;18.33;;;12.85;;
27265;SDS011;14766;51.380;13.762;2024-03-07T08:43:06;19.00;;;12.38;;
27265;SDS011;14766;51.380;13.762;2024-03-07T08:45:34;20.27;;;13.95;;
27265;SDS011;14766;51.380;13.762;2024-03-07T08:48:03;18.52;;;12.65;;
27265;SDS011;14766;51.380;13.762;2024-03-07T08:50:31;19.95;;;12.82;;
27265;SDS011;14766;51.380;13.762;2024-03-07T08:53:01;16.80;;;11.95;;
27265;SDS011;14766;51.380;13.762;2024-03-07T08:55:28;17.98;;;12.32;;
27265;SDS011;14766;51.380;13.762;2024-03-07T08:57:55;17.40;;;11.27;;
27265;SDS011;14766;51.380;13.762;2024-03-07T09:00:22;18.10;;;12.02;;
27265;SDS011;14766;51.380;13.762;2024-03-07T09:02:57;16.02;;;11.55;;
27265;SDS011;14766;51.380;13.762;2024-03-07T09:05:28;18.25;;;12.73;;
27265;SDS011;14766;51.380;13.762;2024-03-07T09:07:57;17.33;;;11.77;;
27265;SDS011;14766;51.380;13.762;2024-03-07T09:10:24;18.90;;;11.85;;
27265;SDS011;14766;51.380;13.762;2024-03-07T09:12:57;18.15;;;11.02;;
27265;SDS011;14766;51.380;13.762;2024-03-07T09:15:25;16.27;;;11.48;;
27265;SDS011;14766;51.380;13.762;2024-03-07T09:17:54;19.00;;;11.30;;
27265;SDS011;14766;51.380;13.762;2024-03-07T09:20:21;21.08;;;12.23;;
27265;SDS011;14766;51.380;13.762;2024-03-07T09:22:50;21.48;;;13.20;;
27265;SDS011;14766;51.380;13.762;2024-03-07T09:25:22;21.58;;;12.93;;
27265;SDS011;14766;51.380;13.762;2024-03-07T09:27:52;20.20;;;12.60;;
27265;SDS011;14766;51.380;13.762;2024-03-07T09:30:21;24.50;;;13.82;;
27265;SDS011;14766;51.380;13.762;2024-03-07T09:32:53;22.10;;;12.77;;
27265;SDS011;14766;51.380;13.762;2024-03-07T09:35:24;21.88;;;13.82;;
27265;SDS011;14766;51.380;13.762;2024-03-07T09:37:51;22.98;;;14.05;;
27265;SDS011;14766;51.380;13.762;2024-03-07T09:40:20;21.60;;;13.77;;
27265;SDS011;14766;51.380;13.762;2024-03-07T09:42:51;20.55;;;12.45;;
27265;SDS011;14766;51.380;13.762;2024-03-07T09:45:21;21.30;;;14.10;;
27265;SDS011;14766;51.380;13.762;2024-03-07T09:47:51;24.05;;;14.20;;
27265;SDS011;14766;51.380;13.762;2024-03-07T09:50:21;22.00;;;14.23;;
27265;SDS011;14766;51.380;13.762;2024-03-07T09:52:50;21.15;;;13.38;;
27265;SDS011;14766;51.380;13.762;2024-03-07T09:55:25;21.92;;;13.52;;
27265;SDS011;14766;51.380;13.762;2024-03-07T09:57:54;23.95;;;13.95;;
27265;SDS011;14766;51.380;13.762;2024-03-07T10:00:24;23.38;;;14.52;;
27265;SDS011;14766;51.380;13.762;2024-03-07T10:02:58;20.70;;;13.18;;
27265;SDS011;14766;51.380;13.762;2024-03-07T10:05:31;21.83;;;13.07;;
27265;SDS011;14766;51.380;13.762;2024-03-07T10:08:00;21.25;;;13.20;;
27265;SDS011;14766;51.380;13.762;2024-03-07T10:10:29;19.98;;;12.25;;
27265;SDS011;14766;51.380;13.762;2024-03-07T10:12:58;29.60;;;17.08;;
27265;SDS011;14766;51.380;13.762;2024-03-07T10:15:31;25.25;;;15.32;;
27265;SDS011;14766;51.380;13.762;2024-03-07T10:17:59;23.02;;;14.20;;
27265;SDS011;14766;51.380;13.762;2024-03-07T10:20:28;20.58;;;11.75;;
27265;SDS011;14766;51.380;13.762;2024-03-07T10:22:56;18.90;;;11.75;;
27265;SDS011;14766;51.380;13.762;2024-03-07T10:25:24;18.83;;;11.68;;
27265;SDS011;14766;51.380;13.762;2024-03-07T10:27:53;16.60;;;10.95;;
27265;SDS011;14766;51.380;13.762;2024-03-07T10:30:22;17.55;;;10.77;;
27265;SDS011;14766;51.380;13.762;2024-03-07T10:32:57;17.92;;;11.13;;
27265;SDS011;14766;51.380;13.762;2024-03-07T10:35:28;22.02;;;12.52;;
27265;SDS011;14766;51.380;13.762;2024-03-07T10:37:58;17.83;;;11.30;;
27265;SDS011;14766;51.380;13.762;2024-03-07T10:40:34;21.85;;;12.23;;
27265;SDS011;14766;51.380;13.762;2024-03-07T10:43:05;18.80;;;10.57;;
27265;SDS011;14766;51.380;13.762;2024-03-07T10:45:46;16.42;;;11.02;;
27265;SDS011;14766;51.380;13.762;2024-03-07T10:48:20;19.85;;;11.93;;
27265;SDS011;14766;51.380;13.762;2024-03-07T10:50:54;16.38;;;10.40;;
27265;SDS011;14766;51.380;13.762;2024-03-07T10:59:15;15.90;;;9.55;;
27265;SDS011;14766;51.380;13.762;2024-03-07T11:01:53;21.90;;;11.00;;
27265;SDS011;14766;51.380;13.762;2024-03-07T11:04:34;18.70;;;11.35;;
27265;SDS011;14766;51.380;13.762;2024-03-07T11:07:03;17.08;;;10.48;;
27265;SDS011;14766;51.380;13.762;2024-03-07T11:09:31;17.13;;;10.60;;
27265;SDS011;14766;51.380;13.762;2024-03-07T11:12:01;20.60;;;11.73;;
27265;SDS011;14766;51.380;13.762;2024-03-07T11:14:34;16.55;;;10.45;;
27265;SDS011;14766;51.380;13.762;2024-03-07T11:17:03;16.20;;;10.32;;
27265;SDS011;14766;51.380;13.762;2024-03-07T11:19:31;15.73;;;9.52;;
27265;SDS011;14766;51.380;13.762;2024-03-07T11:22:03;17.15;;;9.68;;
27265;SDS011;14766;51.380;13.762;2024-03-07T11:24:42;17.63;;;10.13;;
27265;SDS011;14766;51.380;13.762;2024-03-07T11:27:10;15.48;;;9.80;;
27265;SDS011;14766;51.380;13.762;2024-03-07T11:29:50;15.40;;;9.77;;
27265;SDS011;14766;51.380;13.762;2024-03-07T11:32:23;16.38;;;9.95;;
27265;SDS011;14766;51.380;13.762;2024-03-07T11:34:50;16.15;;;9.98;;
27265;SDS011;14766;51.380;13.762;2024-03-07T11:37:36;15.13;;;10.43;;
27265;SDS011;14766;51.380;13.762;2024-03-07T11:40:59;14.65;;;9.70;;
27265;SDS011;14766;51.380;13.762;2024-03-07T11:43:01;17.90;;;10.18;;
27265;SDS011;14766;51.380;13.762;2024-03-07T11:45:31;17.63;;;10.55;;
27265;SDS011;14766;51.380;13.762;2024-03-07T11:48:11;15.93;;;10.55;;
27265;SDS011;14766;51.380;13.762;2024-03-07T11:50:40;16.63;;;10.35;;
27265;SDS011;14766;51.380;13.762;2024-03-07T11:53:08;18.63;;;10.18;;
27265;SDS011;14766;51.380;13.762;2024-03-07T11:55:37;16.42;;;9.80;;
27265;SDS011;14766;51.380;13.762;2024-03-07T11:58:18;14.13;;;8.48;;
27265;SDS011;14766;51.380;13.762;2024-03-07T12:00:50;15.52;;;9.13;;
27265;SDS011;14766;51.380;13.762;2024-03-07T12:03:19;13.07;;;8.40;;
27265;SDS011;14766;51.380;13.762;2024-03-07T12:05:52;16.77;;;9.57;;
27265;SDS011;14766;51.380;13.762;2024-03-07T12:08:20;14.43;;;9.23;;
27265;SDS011;14766;51.380;13.762;2024-03-07T12:10:51;14.52;;;9.23;;
27265;SDS011;14766;51.380;13.762;2024-03-07T12:13:24;15.07;;;8.95;;
27265;SDS011;14766;51.380;13.762;2024-03-07T12:15:53;13.75;;;8.20;;
27265;SDS011;14766;51.380;13.762;2024-03-07T12:18:22;11.50;;;7.63;;
27265;SDS011;14766;51.380;13.762;2024-03-07T12:20:51;15.95;;;9.43;;
27265;SDS011;14766;51.380;13.762;2024-03-07T12:23:22;14.20;;;8.52;;
27265;SDS011;14766;51.380;13.762;2024-03-07T12:26:00;13.23;;;8.80;;
27265;SDS011;14766;51.380;13.762;2024-03-07T12:28:31;14.57;;;9.00;;
27265;SDS011;14766;51.380;13.762;2024-03-07T12:31:01;16.55;;;9.35;;
27265;SDS011;14766;51.380;13.762;2024-03-07T12:33:31;15.57;;;9.45;;
27265;SDS011;14766;51.380;13.762;2024-03-07T12:36:06;14.95;;;8.98;;
27265;SDS011;14766;51.380;13.762;2024-03-07T12:38:34;18.08;;;9.60;;
27265;SDS011;14766;51.380;13.762;2024-03-07T12:41:06;16.42;;;9.57;;
27265;SDS011;14766;51.380;13.762;2024-03-07T12:43:42;14.52;;;9.13;;
27265;SDS011;14766;51.380;13.762;2024-03-07T12:46:10;14.80;;;9.75;;
27265;SDS011;14766;51.380;13.762;2024-03-07T12:48:43;15.02;;;9.35;;
27265;SDS011;14766;51.380;13.762;2024-03-07T12:51:13;13.25;;;9.20;;
27265;SDS011;14766;51.380;13.762;2024-03-07T12:53:46;14.25;;;9.10;;
27265;SDS011;14766;51.380;13.762;2024-03-07T12:56:13;13.20;;;8.80;;
27265;SDS011;14766;51.380;13.762;2024-03-07T12:58:46;15.88;;;10.00;;
27265;SDS011;14766;51.380;13.762;2024-03-07T13:01:14;16.25;;;9.45;;
27265;SDS011;14766;51.380;13.762;2024-03-07T13:03:41;14.63;;;9.68;;
27265;SDS011;14766;51.380;13.762;2024-03-07T13:06:12;17.65;;;10.05;;
27265;SDS011;14766;51.380;13.762;2024-03-07T13:08:41;14.50;;;9.13;;
27265;SDS011;14766;51.380;13.762;2024-03-07T13:11:08;15.15;;;9.82;;
27265;SDS011;14766;51.380;13.762;2024-03-07T13:13:37;13.43;;;9.18;;
27265;SDS011;14766;51.380;13.762;2024-03-07T13:16:04;12.95;;;9.05;;
27265;SDS011;14766;51.380;13.762;2024-03-07T13:18:32;14.77;;;9.45;;
27265;SDS011;14766;51.380;13.762;2024-03-07T13:21:02;15.57;;;8.80;;
27265;SDS011;14766;51.380;13.762;2024-03-07T13:23:32;13.95;;;9.25;;
27265;SDS011;14766;51.380;13.762;2024-03-07T13:26:02;15.82;;;9.80;;
27265;SDS011;14766;51.380;13.762;2024-03-07T13:28:36;13.75;;;9.30;;
27265;SDS011;14766;51.380;13.762;2024-03-07T13:31:03;13.77;;;9.00;;
27265;SDS011;14766;51.380;13.762;2024-03-07T13:33:30;15.85;;;9.65;;
27265;SDS011;14766;51.380;13.762;2024-03-07T13:35:57;14.30;;;9.77;;
27265;SDS011;14766;51.380;13.762;2024-03-07T13:38:27;17.38;;;10.00;;
27265;SDS011;14766;51.380;13.762;2024-03-07T13:40:55;16.80;;;10.05;;
27265;SDS011;14766;51.380;13.762;2024-03-07T13:43:23;15.20;;;9.90;;
27265;SDS011;14766;51.380;13.762;2024-03-07T13:45:51;15.07;;;9.45;;
27265;SDS011;14766;51.380;13.762;2024-03-07T13:48:18;12.88;;;8.32;;
27265;SDS011;14766;51.380;13.762;2024-03-07T13:50:46;15.00;;;10.02;;
27265;SDS011;14766;51.380;13.762;2024-03-07T13:53:28;13.73;;;9.55;;
27265;SDS011;14766;51.380;13.762;2024-03-07T14:01:29;17.98;;;11.23;;
27265;SDS011;14766;51.380;13.762;2024-03-07T14:27:50;17.58;;;10.27;;
27265;SDS011;14766;51.380;13.762;2024-03-07T14:33:07;14.93;;;10.20;;
27265;SDS011;14766;51.380;13.762;2024-03-07T14:40:52;14.40;;;10.60;;
27265;SDS011;14766;51.380;13.762;2024-03-07T14:43:21;15.98;;;11.13;;
27265;SDS011;14766;51.380;13.762;2024-03-07T14:45:50;15.52;;;10.30;;
27265;SDS011;14766;51.380;13.762;2024-03-07T14:48:22;14.10;;;9.52;;
27265;SDS011;14766;51.380;13.762;2024-03-07T14:50:50;13.32;;;9.25;;
27265;SDS011;14766;51.380;13.762;2024-03-07T14:53:18;16.60;;;10.70;;
27265;SDS011;14766;51.380;13.762;2024-03-07T14:55:47;20.48;;;12.30;;
27265;SDS011;14766;51.380;13.762;2024-03-07T14:58:14;15.30;;;10.60;;
27265;SDS011;14766;51.380;13.762;2024-03-07T15:00:43;15.38;;;10.68;;
27265;SDS011;14766;51.380;13.762;2024-03-07T15:03:23;18.33;;;10.40;;
27265;SDS011;14766;51.380;13.762;2024-03-07T15:05:56;16.13;;;10.15;;